sensor_id;sensor_type;location;lat;lon;timestamp;temperature;humidity
66140;DHT22;52945;51.908;8.364;2023-04-15T00:01:43;12.60;54.90
66140;DHT22;52945;51.908;8.364;2023-04-15T00:04:45;12.50;55.10
66140;DHT22;52945;51.908;8.364;2023-04-15T00:07:55;12.50;55.10
66140;DHT22;52945;51.908;8.364;2023-04-15T00:10:55;12.50;55.20
66140;DHT22;52945;51.908;8.364;2023-04-15T00:13:56;12.50;55.40
66140;DHT22;52945;51.908;8.364;2023-04-15T00:16:57;12.40;55.40
66140;DHT22;52945;51.908;8.364;2023-04-15T00:19:58;12.40;55.50
66140;DHT22;52945;51.908;8.364;2023-04-15T00:22:59;12.30;55.60
66140;DHT22;52945;51.908;8.364;2023-04-15T00:26:00;12.30;55.60
66140;DHT22;52945;51.908;8.364;2023-04-15T00:29:00;12.30;55.70
66140;DHT22;52945;51.908;8.364;2023-04-15T00:32:01;12.20;55.90
66140;DHT22;52945;51.908;8.364;2023-04-15T00:35:02;12.20;56.20
66140;DHT22;52945;51.908;8.364;2023-04-15T00:38:04;12.10;56.10
66140;DHT22;52945;51.908;8.364;2023-04-15T00:41:04;12.10;56.30
66140;DHT22;52945;51.908;8.364;2023-04-15T00:44:06;12.10;56.40
66140;DHT22;52945;51.908;8.364;2023-04-15T00:47:06;12.10;56.30
66140;DHT22;52945;51.908;8.364;2023-04-15T00:50:08;12.10;56.60
66140;DHT22;52945;51.908;8.364;2023-04-15T00:53:09;12.00;56.40
66140;DHT22;52945;51.908;8.364;2023-04-15T00:56:10;12.00;56.60
66140;DHT22;52945;51.908;8.364;2023-04-15T00:59:11;11.90;56.90
66140;DHT22;52945;51.908;8.364;2023-04-15T01:02:11;11.90;57.00
66140;DHT22;52945;51.908;8.364;2023-04-15T01:05:12;11.90;56.80
66140;DHT22;52945;51.908;8.364;2023-04-15T01:08:13;11.90;56.80
66140;DHT22;52945;51.908;8.364;2023-04-15T01:11:14;11.80;57.20
66140;DHT22;52945;51.908;8.364;2023-04-15T01:14:15;11.80;57.20
66140;DHT22;52945;51.908;8.364;2023-04-15T01:17:16;11.70;57.30
66140;DHT22;52945;51.908;8.364;2023-04-15T01:20:17;11.70;57.30
66140;DHT22;52945;51.908;8.364;2023-04-15T01:23:18;11.70;57.60
66140;DHT22;52945;51.908;8.364;2023-04-15T01:26:19;11.60;57.70
66140;DHT22;52945;51.908;8.364;2023-04-15T01:29:20;11.60;57.70
66140;DHT22;52945;51.908;8.364;2023-04-15T01:32:22;11.50;57.80
66140;DHT22;52945;51.908;8.364;2023-04-15T01:35:23;11.50;57.70
66140;DHT22;52945;51.908;8.364;2023-04-15T01:38:25;11.50;58.00
66140;DHT22;52945;51.908;8.364;2023-04-15T01:41:26;11.50;57.90
66140;DHT22;52945;51.908;8.364;2023-04-15T01:44:27;11.50;58.20
66140;DHT22;52945;51.908;8.364;2023-04-15T01:47:28;11.40;58.40
66140;DHT22;52945;51.908;8.364;2023-04-15T01:50:28;11.30;58.40
66140;DHT22;52945;51.908;8.364;2023-04-15T01:53:29;11.30;58.50
66140;DHT22;52945;51.908;8.364;2023-04-15T01:56:29;11.30;58.60
66140;DHT22;52945;51.908;8.364;2023-04-15T01:59:30;11.20;58.70
66140;DHT22;52945;51.908;8.364;2023-04-15T02:02:31;11.20;59.20
66140;DHT22;52945;51.908;8.364;2023-04-15T02:05:32;11.20;59.00
66140;DHT22;52945;51.908;8.364;2023-04-15T02:08:33;11.20;59.00
66140;DHT22;52945;51.908;8.364;2023-04-15T02:11:33;11.20;59.10
66140;DHT22;52945;51.908;8.364;2023-04-15T02:14:35;11.20;59.20
66140;DHT22;52945;51.908;8.364;2023-04-15T02:17:36;11.10;59.40
66140;DHT22;52945;51.908;8.364;2023-04-15T02:20:36;11.10;59.30
66140;DHT22;52945;51.908;8.364;2023-04-15T02:23:37;11.10;59.40
66140;DHT22;52945;51.908;8.364;2023-04-15T02:26:38;11.10;59.40
66140;DHT22;52945;51.908;8.364;2023-04-15T02:29:38;11.00;59.40
66140;DHT22;52945;51.908;8.364;2023-04-15T02:32:39;11.00;59.40
66140;DHT22;52945;51.908;8.364;2023-04-15T02:35:42;11.10;59.10
66140;DHT22;52945;51.908;8.364;2023-04-15T02:38:44;11.00;59.80
66140;DHT22;52945;51.908;8.364;2023-04-15T02:41:45;11.00;59.60
66140;DHT22;52945;51.908;8.364;2023-04-15T02:44:51;11.00;59.50
66140;DHT22;52945;51.908;8.364;2023-04-15T02:47:51;10.90;59.80
66140;DHT22;52945;51.908;8.364;2023-04-15T02:50:52;10.90;59.80
66140;DHT22;52945;51.908;8.364;2023-04-15T02:53:52;10.80;60.00
66140;DHT22;52945;51.908;8.364;2023-04-15T02:56:53;10.80;60.30
66140;DHT22;52945;51.908;8.364;2023-04-15T02:59:55;10.80;60.40
66140;DHT22;52945;51.908;8.364;2023-04-15T03:03:01;10.70;60.40
66140;DHT22;52945;51.908;8.364;2023-04-15T03:06:02;10.70;60.20
66140;DHT22;52945;51.908;8.364;2023-04-15T03:09:03;10.60;60.40
66140;DHT22;52945;51.908;8.364;2023-04-15T03:12:04;10.70;60.30
66140;DHT22;52945;51.908;8.364;2023-04-15T03:15:05;10.60;60.20
66140;DHT22;52945;51.908;8.364;2023-04-15T03:18:06;10.50;60.20
66140;DHT22;52945;51.908;8.364;2023-04-15T03:21:06;10.50;60.20
66140;DHT22;52945;51.908;8.364;2023-04-15T03:24:07;10.40;60.30
66140;DHT22;52945;51.908;8.364;2023-04-15T03:27:08;10.40;60.20
66140;DHT22;52945;51.908;8.364;2023-04-15T03:30:09;10.30;60.40
66140;DHT22;52945;51.908;8.364;2023-04-15T03:33:09;10.30;60.40
66140;DHT22;52945;51.908;8.364;2023-04-15T03:36:10;10.30;60.20
66140;DHT22;52945;51.908;8.364;2023-04-15T03:39:11;10.30;60.30
66140;DHT22;52945;51.908;8.364;2023-04-15T03:42:12;10.30;60.30
66140;DHT22;52945;51.908;8.364;2023-04-15T03:45:12;10.20;60.50
66140;DHT22;52945;51.908;8.364;2023-04-15T03:48:13;10.20;60.80
66140;DHT22;52945;51.908;8.364;2023-04-15T03:51:13;10.10;61.00
66140;DHT22;52945;51.908;8.364;2023-04-15T03:54:14;10.10;61.10
66140;DHT22;52945;51.908;8.364;2023-04-15T03:57:15;10.10;61.00
66140;DHT22;52945;51.908;8.364;2023-04-15T04:00:15;10.10;61.00
66140;DHT22;52945;51.908;8.364;2023-04-15T04:03:16;10.10;61.10
66140;DHT22;52945;51.908;8.364;2023-04-15T04:06:17;10.00;60.90
66140;DHT22;52945;51.908;8.364;2023-04-15T04:09:17;10.00;61.10
66140;DHT22;52945;51.908;8.364;2023-04-15T04:12:18;10.00;61.30
66140;DHT22;52945;51.908;8.364;2023-04-15T04:15:18;10.00;61.10
66140;DHT22;52945;51.908;8.364;2023-04-15T04:18:19;10.00;61.00
66140;DHT22;52945;51.908;8.364;2023-04-15T04:21:20;9.90;61.10
66140;DHT22;52945;51.908;8.364;2023-04-15T04:24:21;9.90;61.20
66140;DHT22;52945;51.908;8.364;2023-04-15T04:27:21;9.90;61.40
66140;DHT22;52945;51.908;8.364;2023-04-15T04:30:22;9.90;61.40
66140;DHT22;52945;51.908;8.364;2023-04-15T04:33:22;9.90;61.40
66140;DHT22;52945;51.908;8.364;2023-04-15T04:36:23;9.90;61.50
66140;DHT22;52945;51.908;8.364;2023-04-15T04:39:25;9.80;61.60
66140;DHT22;52945;51.908;8.364;2023-04-15T04:42:25;9.80;61.60
66140;DHT22;52945;51.908;8.364;2023-04-15T04:45:26;9.70;61.90
66140;DHT22;52945;51.908;8.364;2023-04-15T04:48:26;9.70;61.90
66140;DHT22;52945;51.908;8.364;2023-04-15T04:51:27;9.70;62.10
66140;DHT22;52945;51.908;8.364;2023-04-15T04:54:28;9.70;62.20
66140;DHT22;52945;51.908;8.364;2023-04-15T04:57:30;9.70;62.30
66140;DHT22;52945;51.908;8.364;2023-04-15T05:00:30;9.70;62.50
66140;DHT22;52945;51.908;8.364;2023-04-15T05:03:31;9.70;62.50
66140;DHT22;52945;51.908;8.364;2023-04-15T05:06:32;9.60;62.70
66140;DHT22;52945;51.908;8.364;2023-04-15T05:09:32;9.60;62.90
66140;DHT22;52945;51.908;8.364;2023-04-15T05:12:35;9.70;62.90
66140;DHT22;52945;51.908;8.364;2023-04-15T05:15:37;9.60;63.10
66140;DHT22;52945;51.908;8.364;2023-04-15T05:18:40;9.70;63.10
66140;DHT22;52945;51.908;8.364;2023-04-15T05:21:41;9.70;63.20
66140;DHT22;52945;51.908;8.364;2023-04-15T05:24:41;9.70;63.20
66140;DHT22;52945;51.908;8.364;2023-04-15T05:27:42;9.70;63.30
66140;DHT22;52945;51.908;8.364;2023-04-15T05:30:43;9.70;63.40
66140;DHT22;52945;51.908;8.364;2023-04-15T05:33:43;9.70;63.60
66140;DHT22;52945;51.908;8.364;2023-04-15T05:36:44;9.70;63.70
66140;DHT22;52945;51.908;8.364;2023-04-15T05:39:45;9.70;64.00
66140;DHT22;52945;51.908;8.364;2023-04-15T05:42:45;9.70;64.00
66140;DHT22;52945;51.908;8.364;2023-04-15T05:45:46;9.80;64.20
66140;DHT22;52945;51.908;8.364;2023-04-15T05:48:47;9.70;64.10
66140;DHT22;52945;51.908;8.364;2023-04-15T05:51:47;9.80;64.20
66140;DHT22;52945;51.908;8.364;2023-04-15T05:54:48;9.80;64.40
66140;DHT22;52945;51.908;8.364;2023-04-15T05:57:48;9.80;64.60
66140;DHT22;52945;51.908;8.364;2023-04-15T06:00:49;9.80;64.60
66140;DHT22;52945;51.908;8.364;2023-04-15T06:03:50;9.80;64.90
66140;DHT22;52945;51.908;8.364;2023-04-15T06:06:50;9.90;64.90
66140;DHT22;52945;51.908;8.364;2023-04-15T06:09:51;9.90;64.90
66140;DHT22;52945;51.908;8.364;2023-04-15T06:12:52;9.90;65.00
66140;DHT22;52945;51.908;8.364;2023-04-15T06:15:53;9.80;65.20
66140;DHT22;52945;51.908;8.364;2023-04-15T06:18:53;9.80;65.30
66140;DHT22;52945;51.908;8.364;2023-04-15T06:21:54;9.80;65.50
66140;DHT22;52945;51.908;8.364;2023-04-15T06:24:55;9.90;65.60
66140;DHT22;52945;51.908;8.364;2023-04-15T06:27:55;9.90;65.70
66140;DHT22;52945;51.908;8.364;2023-04-15T06:30:56;9.90;65.90
66140;DHT22;52945;51.908;8.364;2023-04-15T06:33:57;9.90;66.10
66140;DHT22;52945;51.908;8.364;2023-04-15T06:36:57;10.00;66.30
66140;DHT22;52945;51.908;8.364;2023-04-15T06:39:58;10.00;66.50
66140;DHT22;52945;51.908;8.364;2023-04-15T06:42:58;10.00;66.70
66140;DHT22;52945;51.908;8.364;2023-04-15T06:45:59;10.00;67.00
66140;DHT22;52945;51.908;8.364;2023-04-15T06:49:00;10.10;67.30
66140;DHT22;52945;51.908;8.364;2023-04-15T06:52:01;10.10;67.50
66140;DHT22;52945;51.908;8.364;2023-04-15T06:55:02;10.20;67.40
66140;DHT22;52945;51.908;8.364;2023-04-15T06:58:02;10.20;67.40
66140;DHT22;52945;51.908;8.364;2023-04-15T07:01:03;10.40;67.60
66140;DHT22;52945;51.908;8.364;2023-04-15T07:04:04;10.40;67.60
66140;DHT22;52945;51.908;8.364;2023-04-15T07:07:05;10.50;67.50
66140;DHT22;52945;51.908;8.364;2023-04-15T07:10:07;10.60;67.50
66140;DHT22;52945;51.908;8.364;2023-04-15T07:13:08;10.60;67.80
66140;DHT22;52945;51.908;8.364;2023-04-15T07:16:09;10.60;67.60
66140;DHT22;52945;51.908;8.364;2023-04-15T07:19:09;10.50;67.60
66140;DHT22;52945;51.908;8.364;2023-04-15T07:22:10;10.60;67.60
66140;DHT22;52945;51.908;8.364;2023-04-15T07:25:10;10.60;67.50
66140;DHT22;52945;51.908;8.364;2023-04-15T07:28:11;10.60;67.70
66140;DHT22;52945;51.908;8.364;2023-04-15T07:31:12;10.60;67.90
66140;DHT22;52945;51.908;8.364;2023-04-15T07:34:13;10.50;68.00
66140;DHT22;52945;51.908;8.364;2023-04-15T07:37:14;10.60;68.30
66140;DHT22;52945;51.908;8.364;2023-04-15T07:40:15;10.60;68.30
66140;DHT22;52945;51.908;8.364;2023-04-15T07:43:15;10.60;68.70
66140;DHT22;52945;51.908;8.364;2023-04-15T07:46:16;10.70;69.20
66140;DHT22;52945;51.908;8.364;2023-04-15T07:49:17;10.70;69.00
66140;DHT22;52945;51.908;8.364;2023-04-15T07:52:18;10.80;68.80
66140;DHT22;52945;51.908;8.364;2023-04-15T07:55:19;10.90;68.60
66140;DHT22;52945;51.908;8.364;2023-04-15T07:58:22;10.90;68.50
66140;DHT22;52945;51.908;8.364;2023-04-15T08:01:22;10.90;68.80
66140;DHT22;52945;51.908;8.364;2023-04-15T08:04:23;11.00;68.90
66140;DHT22;52945;51.908;8.364;2023-04-15T08:07:24;11.00;69.00
66140;DHT22;52945;51.908;8.364;2023-04-15T08:10:24;11.00;69.60
66140;DHT22;52945;51.908;8.364;2023-04-15T08:13:25;11.10;69.80
66140;DHT22;52945;51.908;8.364;2023-04-15T08:16:26;11.00;70.30
66140;DHT22;52945;51.908;8.364;2023-04-15T08:19:27;11.10;70.40
66140;DHT22;52945;51.908;8.364;2023-04-15T08:22:28;11.10;70.50
66140;DHT22;52945;51.908;8.364;2023-04-15T08:25:29;11.10;70.50
66140;DHT22;52945;51.908;8.364;2023-04-15T08:28:30;11.10;70.60
66140;DHT22;52945;51.908;8.364;2023-04-15T08:31:31;11.10;70.90
66140;DHT22;52945;51.908;8.364;2023-04-15T08:34:31;11.10;70.80
66140;DHT22;52945;51.908;8.364;2023-04-15T08:37:32;11.10;71.10
66140;DHT22;52945;51.908;8.364;2023-04-15T08:40:40;11.00;71.50
66140;DHT22;52945;51.908;8.364;2023-04-15T08:43:48;11.00;72.00
66140;DHT22;52945;51.908;8.364;2023-04-15T08:46:52;11.10;72.30
66140;DHT22;52945;51.908;8.364;2023-04-15T08:49:54;11.10;72.50
66140;DHT22;52945;51.908;8.364;2023-04-15T08:53:00;11.00;72.10
66140;DHT22;52945;51.908;8.364;2023-04-15T08:56:04;11.00;72.60
66140;DHT22;52945;51.908;8.364;2023-04-15T08:59:07;10.90;72.50
66140;DHT22;52945;51.908;8.364;2023-04-15T09:02:08;10.90;73.20
66140;DHT22;52945;51.908;8.364;2023-04-15T09:05:09;11.00;73.40
66140;DHT22;52945;51.908;8.364;2023-04-15T09:08:09;11.00;73.80
66140;DHT22;52945;51.908;8.364;2023-04-15T09:11:10;11.10;74.30
66140;DHT22;52945;51.908;8.364;2023-04-15T09:14:10;11.10;73.90
66140;DHT22;52945;51.908;8.364;2023-04-15T09:17:11;11.10;73.90
66140;DHT22;52945;51.908;8.364;2023-04-15T09:20:14;11.10;74.10
66140;DHT22;52945;51.908;8.364;2023-04-15T09:23:15;11.10;74.20
66140;DHT22;52945;51.908;8.364;2023-04-15T09:26:16;11.10;74.50
66140;DHT22;52945;51.908;8.364;2023-04-15T09:29:17;11.10;74.30
66140;DHT22;52945;51.908;8.364;2023-04-15T09:32:18;11.10;74.10
66140;DHT22;52945;51.908;8.364;2023-04-15T09:35:21;11.20;74.40
66140;DHT22;52945;51.908;8.364;2023-04-15T09:38:22;11.30;74.00
66140;DHT22;52945;51.908;8.364;2023-04-15T09:41:23;11.30;74.00
66140;DHT22;52945;51.908;8.364;2023-04-15T09:44:25;11.30;74.30
66140;DHT22;52945;51.908;8.364;2023-04-15T09:47:30;11.30;74.10
66140;DHT22;52945;51.908;8.364;2023-04-15T09:50:30;11.40;74.10
66140;DHT22;52945;51.908;8.364;2023-04-15T09:53:40;11.40;74.20
66140;DHT22;52945;51.908;8.364;2023-04-15T09:56:41;11.50;73.70
66140;DHT22;52945;51.908;8.364;2023-04-15T09:59:41;11.50;74.00
66140;DHT22;52945;51.908;8.364;2023-04-15T10:02:42;11.50;74.00
66140;DHT22;52945;51.908;8.364;2023-04-15T10:05:43;11.50;73.60
66140;DHT22;52945;51.908;8.364;2023-04-15T10:08:44;11.50;73.30
66140;DHT22;52945;51.908;8.364;2023-04-15T10:11:47;11.50;73.20
66140;DHT22;52945;51.908;8.364;2023-04-15T10:14:57;11.70;73.30
66140;DHT22;52945;51.908;8.364;2023-04-15T10:17:59;11.60;73.20
66140;DHT22;52945;51.908;8.364;2023-04-15T10:21:00;11.60;73.10
66140;DHT22;52945;51.908;8.364;2023-04-15T10:24:02;11.60;73.30
66140;DHT22;52945;51.908;8.364;2023-04-15T10:27:04;11.60;73.50
66140;DHT22;52945;51.908;8.364;2023-04-15T10:30:06;11.60;73.30
66140;DHT22;52945;51.908;8.364;2023-04-15T10:33:08;11.60;73.70
66140;DHT22;52945;51.908;8.364;2023-04-15T10:36:11;11.70;73.60
66140;DHT22;52945;51.908;8.364;2023-04-15T10:42:34;11.70;73.90
66140;DHT22;52945;51.908;8.364;2023-04-15T10:45:36;11.70;74.40
66140;DHT22;52945;51.908;8.364;2023-04-15T10:48:37;11.70;74.80
66140;DHT22;52945;51.908;8.364;2023-04-15T10:51:41;11.60;75.00
66140;DHT22;52945;51.908;8.364;2023-04-15T10:54:42;11.70;75.30
66140;DHT22;52945;51.908;8.364;2023-04-15T10:57:44;11.60;75.50
66140;DHT22;52945;51.908;8.364;2023-04-15T11:00:49;11.60;75.50
66140;DHT22;52945;51.908;8.364;2023-04-15T11:03:54;11.60;75.60
66140;DHT22;52945;51.908;8.364;2023-04-15T11:07:05;11.60;75.50
66140;DHT22;52945;51.908;8.364;2023-04-15T11:13:25;11.60;76.00
66140;DHT22;52945;51.908;8.364;2023-04-15T11:16:27;11.50;76.00
66140;DHT22;52945;51.908;8.364;2023-04-15T11:19:35;11.50;76.20
66140;DHT22;52945;51.908;8.364;2023-04-15T11:22:36;11.50;76.20
66140;DHT22;52945;51.908;8.364;2023-04-15T11:25:36;11.50;76.20
66140;DHT22;52945;51.908;8.364;2023-04-15T11:28:41;11.50;76.30
66140;DHT22;52945;51.908;8.364;2023-04-15T11:31:46;11.50;76.30
66140;DHT22;52945;51.908;8.364;2023-04-15T11:34:50;11.50;76.50
66140;DHT22;52945;51.908;8.364;2023-04-15T11:37:51;11.50;76.50
66140;DHT22;52945;51.908;8.364;2023-04-15T11:40:52;11.40;76.40
66140;DHT22;52945;51.908;8.364;2023-04-15T11:43:53;11.50;76.60
66140;DHT22;52945;51.908;8.364;2023-04-15T11:46:54;11.50;76.60
66140;DHT22;52945;51.908;8.364;2023-04-15T11:49:55;11.40;76.60
66140;DHT22;52945;51.908;8.364;2023-04-15T11:53:00;11.40;76.60
66140;DHT22;52945;51.908;8.364;2023-04-15T11:56:01;11.40;76.90
66140;DHT22;52945;51.908;8.364;2023-04-15T11:59:02;11.40;76.80
66140;DHT22;52945;51.908;8.364;2023-04-15T12:02:10;11.40;76.90
66140;DHT22;52945;51.908;8.364;2023-04-15T12:05:10;11.40;77.00
66140;DHT22;52945;51.908;8.364;2023-04-15T12:08:11;11.40;77.10
66140;DHT22;52945;51.908;8.364;2023-04-15T12:11:12;11.40;77.20
66140;DHT22;52945;51.908;8.364;2023-04-15T12:14:32;11.40;77.20
66140;DHT22;52945;51.908;8.364;2023-04-15T12:17:33;11.40;77.20
66140;DHT22;52945;51.908;8.364;2023-04-15T12:20:43;11.50;77.40
66140;DHT22;52945;51.908;8.364;2023-04-15T12:23:51;11.50;77.40
66140;DHT22;52945;51.908;8.364;2023-04-15T12:26:54;11.50;77.40
66140;DHT22;52945;51.908;8.364;2023-04-15T12:30:03;11.50;77.30
66140;DHT22;52945;51.908;8.364;2023-04-15T12:33:04;11.50;77.50
66140;DHT22;52945;51.908;8.364;2023-04-15T12:36:05;11.50;77.50
66140;DHT22;52945;51.908;8.364;2023-04-15T12:39:06;11.60;77.60
66140;DHT22;52945;51.908;8.364;2023-04-15T12:42:07;11.60;77.50
66140;DHT22;52945;51.908;8.364;2023-04-15T12:45:08;11.60;77.60
66140;DHT22;52945;51.908;8.364;2023-04-15T12:48:08;11.60;77.50
66140;DHT22;52945;51.908;8.364;2023-04-15T12:51:09;11.60;77.60
66140;DHT22;52945;51.908;8.364;2023-04-15T12:54:10;11.60;77.60
66140;DHT22;52945;51.908;8.364;2023-04-15T12:57:10;11.60;77.60
66140;DHT22;52945;51.908;8.364;2023-04-15T13:00:12;11.60;77.60
66140;DHT22;52945;51.908;8.364;2023-04-15T13:03:13;11.60;77.40
66140;DHT22;52945;51.908;8.364;2023-04-15T13:06:13;11.60;77.40
66140;DHT22;52945;51.908;8.364;2023-04-15T13:09:14;11.60;77.50
66140;DHT22;52945;51.908;8.364;2023-04-15T13:12:15;11.50;77.50
66140;DHT22;52945;51.908;8.364;2023-04-15T13:15:15;11.60;77.60
66140;DHT22;52945;51.908;8.364;2023-04-15T13:18:18;11.60;77.60
66140;DHT22;52945;51.908;8.364;2023-04-15T13:21:19;11.60;77.70
66140;DHT22;52945;51.908;8.364;2023-04-15T13:24:20;11.60;77.70
66140;DHT22;52945;51.908;8.364;2023-04-15T13:27:21;11.60;77.90
66140;DHT22;52945;51.908;8.364;2023-04-15T13:30:21;11.60;77.90
66140;DHT22;52945;51.908;8.364;2023-04-15T13:33:22;11.50;77.40
66140;DHT22;52945;51.908;8.364;2023-04-15T13:36:22;11.60;77.70
66140;DHT22;52945;51.908;8.364;2023-04-15T13:39:23;11.60;77.80
66140;DHT22;52945;51.908;8.364;2023-04-15T13:42:24;11.60;77.70
66140;DHT22;52945;51.908;8.364;2023-04-15T13:45:25;11.60;77.80
66140;DHT22;52945;51.908;8.364;2023-04-15T13:48:26;11.60;77.80
66140;DHT22;52945;51.908;8.364;2023-04-15T13:51:26;11.60;77.80
66140;DHT22;52945;51.908;8.364;2023-04-15T13:54:27;11.60;77.50
66140;DHT22;52945;51.908;8.364;2023-04-15T13:57:27;11.60;77.80
66140;DHT22;52945;51.908;8.364;2023-04-15T14:00:28;11.60;77.80
66140;DHT22;52945;51.908;8.364;2023-04-15T14:03:28;11.60;77.80
66140;DHT22;52945;51.908;8.364;2023-04-15T14:06:29;11.50;77.70
66140;DHT22;52945;51.908;8.364;2023-04-15T14:09:32;11.50;77.80
66140;DHT22;52945;51.908;8.364;2023-04-15T14:12:32;11.50;77.80
66140;DHT22;52945;51.908;8.364;2023-04-15T14:15:33;11.50;77.90
66140;DHT22;52945;51.908;8.364;2023-04-15T14:18:33;11.50;77.90
66140;DHT22;52945;51.908;8.364;2023-04-15T14:21:34;11.50;78.00
66140;DHT22;52945;51.908;8.364;2023-04-15T14:24:35;11.60;77.90
66140;DHT22;52945;51.908;8.364;2023-04-15T14:27:35;11.50;77.70
66140;DHT22;52945;51.908;8.364;2023-04-15T14:30:36;11.60;77.70
66140;DHT22;52945;51.908;8.364;2023-04-15T14:33:37;11.50;77.60
66140;DHT22;52945;51.908;8.364;2023-04-15T14:36:37;11.50;77.70
66140;DHT22;52945;51.908;8.364;2023-04-15T14:39:38;11.50;77.70
66140;DHT22;52945;51.908;8.364;2023-04-15T14:42:39;11.50;77.70
66140;DHT22;52945;51.908;8.364;2023-04-15T14:45:39;11.50;77.90
66140;DHT22;52945;51.908;8.364;2023-04-15T14:48:41;11.50;77.90
66140;DHT22;52945;51.908;8.364;2023-04-15T14:51:42;11.50;77.90
66140;DHT22;52945;51.908;8.364;2023-04-15T14:54:42;11.50;77.80
66140;DHT22;52945;51.908;8.364;2023-04-15T14:57:43;11.60;77.80
66140;DHT22;52945;51.908;8.364;2023-04-15T15:00:43;11.50;77.90
66140;DHT22;52945;51.908;8.364;2023-04-15T15:03:44;11.50;78.00
66140;DHT22;52945;51.908;8.364;2023-04-15T15:06:45;11.50;78.00
66140;DHT22;52945;51.908;8.364;2023-04-15T15:09:46;11.50;78.10
66140;DHT22;52945;51.908;8.364;2023-04-15T15:12:47;11.50;78.10
66140;DHT22;52945;51.908;8.364;2023-04-15T15:15:48;11.50;78.20
66140;DHT22;52945;51.908;8.364;2023-04-15T15:18:49;11.50;78.30
66140;DHT22;52945;51.908;8.364;2023-04-15T15:21:50;11.50;78.40
66140;DHT22;52945;51.908;8.364;2023-04-15T15:24:51;11.50;78.40
66140;DHT22;52945;51.908;8.364;2023-04-15T15:27:52;11.50;78.50
66140;DHT22;52945;51.908;8.364;2023-04-15T15:30:53;11.50;78.50
66140;DHT22;52945;51.908;8.364;2023-04-15T15:33:54;11.50;78.60
66140;DHT22;52945;51.908;8.364;2023-04-15T15:36:54;11.50;78.50
66140;DHT22;52945;51.908;8.364;2023-04-15T15:39:56;11.60;78.50
66140;DHT22;52945;51.908;8.364;2023-04-15T15:42:56;11.60;78.50
66140;DHT22;52945;51.908;8.364;2023-04-15T15:45:57;11.50;78.60
66140;DHT22;52945;51.908;8.364;2023-04-15T15:48:58;11.50;78.60
66140;DHT22;52945;51.908;8.364;2023-04-15T15:51:58;11.50;78.50
66140;DHT22;52945;51.908;8.364;2023-04-15T15:54:59;11.60;78.70
66140;DHT22;52945;51.908;8.364;2023-04-15T15:58:01;11.60;78.70
66140;DHT22;52945;51.908;8.364;2023-04-15T16:01:01;11.60;78.60
66140;DHT22;52945;51.908;8.364;2023-04-15T16:04:02;11.60;78.70
66140;DHT22;52945;51.908;8.364;2023-04-15T16:07:03;11.60;78.70
66140;DHT22;52945;51.908;8.364;2023-04-15T16:10:04;11.60;78.50
66140;DHT22;52945;51.908;8.364;2023-04-15T16:13:05;11.70;78.60
66140;DHT22;52945;51.908;8.364;2023-04-15T16:16:05;11.60;78.60
66140;DHT22;52945;51.908;8.364;2023-04-15T16:19:06;11.70;78.50
66140;DHT22;52945;51.908;8.364;2023-04-15T16:22:07;11.70;78.60
66140;DHT22;52945;51.908;8.364;2023-04-15T16:25:07;11.60;78.50
66140;DHT22;52945;51.908;8.364;2023-04-15T16:28:09;11.70;78.50
66140;DHT22;52945;51.908;8.364;2023-04-15T16:31:12;11.70;78.60
66140;DHT22;52945;51.908;8.364;2023-04-15T16:34:13;11.70;78.60
66140;DHT22;52945;51.908;8.364;2023-04-15T16:37:15;11.60;78.60
66140;DHT22;52945;51.908;8.364;2023-04-15T16:40:15;11.70;78.50
66140;DHT22;52945;51.908;8.364;2023-04-15T16:43:16;11.60;78.40
66140;DHT22;52945;51.908;8.364;2023-04-15T16:46:17;11.70;78.60
66140;DHT22;52945;51.908;8.364;2023-04-15T16:49:17;11.70;78.70
66140;DHT22;52945;51.908;8.364;2023-04-15T16:52:18;11.70;78.60
66140;DHT22;52945;51.908;8.364;2023-04-15T16:55:18;11.70;78.60
66140;DHT22;52945;51.908;8.364;2023-04-15T16:58:19;11.70;78.60
66140;DHT22;52945;51.908;8.364;2023-04-15T17:01:20;11.70;78.60
66140;DHT22;52945;51.908;8.364;2023-04-15T17:04:21;11.70;78.50
66140;DHT22;52945;51.908;8.364;2023-04-15T17:07:21;11.70;78.50
66140;DHT22;52945;51.908;8.364;2023-04-15T17:10:22;11.70;78.60
66140;DHT22;52945;51.908;8.364;2023-04-15T17:13:24;11.70;78.60
66140;DHT22;52945;51.908;8.364;2023-04-15T17:16:25;11.70;78.60
66140;DHT22;52945;51.908;8.364;2023-04-15T17:19:26;11.70;78.60
66140;DHT22;52945;51.908;8.364;2023-04-15T17:22:26;11.70;78.50
66140;DHT22;52945;51.908;8.364;2023-04-15T17:25:27;11.70;78.60
66140;DHT22;52945;51.908;8.364;2023-04-15T17:28:28;11.70;78.50
66140;DHT22;52945;51.908;8.364;2023-04-15T17:31:28;11.70;78.50
66140;DHT22;52945;51.908;8.364;2023-04-15T17:34:29;11.70;78.60
66140;DHT22;52945;51.908;8.364;2023-04-15T17:37:31;11.70;78.60
66140;DHT22;52945;51.908;8.364;2023-04-15T17:40:31;11.70;78.40
66140;DHT22;52945;51.908;8.364;2023-04-15T17:43:32;11.70;78.30
66140;DHT22;52945;51.908;8.364;2023-04-15T17:46:33;11.70;78.40
66140;DHT22;52945;51.908;8.364;2023-04-15T17:49:33;11.70;78.40
66140;DHT22;52945;51.908;8.364;2023-04-15T17:52:36;11.70;78.40
66140;DHT22;52945;51.908;8.364;2023-04-15T17:55:37;11.70;78.50
66140;DHT22;52945;51.908;8.364;2023-04-15T17:58:38;11.70;78.50
66140;DHT22;52945;51.908;8.364;2023-04-15T18:01:38;11.70;78.40
66140;DHT22;52945;51.908;8.364;2023-04-15T18:04:39;11.70;78.40
66140;DHT22;52945;51.908;8.364;2023-04-15T18:07:40;11.70;78.40
66140;DHT22;52945;51.908;8.364;2023-04-15T18:10:40;11.70;78.40
66140;DHT22;52945;51.908;8.364;2023-04-15T18:13:41;11.70;78.40
66140;DHT22;52945;51.908;8.364;2023-04-15T18:16:41;11.70;78.40
66140;DHT22;52945;51.908;8.364;2023-04-15T18:19:43;11.70;78.40
66140;DHT22;52945;51.908;8.364;2023-04-15T18:22:45;11.70;78.30
66140;DHT22;52945;51.908;8.364;2023-04-15T18:25:45;11.70;78.40
66140;DHT22;52945;51.908;8.364;2023-04-15T18:28:46;11.70;78.30
66140;DHT22;52945;51.908;8.364;2023-04-15T18:31:47;11.70;78.20
66140;DHT22;52945;51.908;8.364;2023-04-15T18:34:47;11.70;78.30
66140;DHT22;52945;51.908;8.364;2023-04-15T18:37:48;11.70;78.10
66140;DHT22;52945;51.908;8.364;2023-04-15T18:40:48;11.70;78.30
66140;DHT22;52945;51.908;8.364;2023-04-15T18:43:49;11.70;78.20
66140;DHT22;52945;51.908;8.364;2023-04-15T18:46:50;11.70;78.10
66140;DHT22;52945;51.908;8.364;2023-04-15T18:49:50;11.70;78.20
66140;DHT22;52945;51.908;8.364;2023-04-15T18:52:51;11.70;78.00
66140;DHT22;52945;51.908;8.364;2023-04-15T18:55:52;11.70;78.00
66140;DHT22;52945;51.908;8.364;2023-04-15T18:58:52;11.70;78.00
66140;DHT22;52945;51.908;8.364;2023-04-15T19:01:53;11.70;78.00
66140;DHT22;52945;51.908;8.364;2023-04-15T19:04:53;11.70;78.00
66140;DHT22;52945;51.908;8.364;2023-04-15T19:07:54;11.70;78.10
66140;DHT22;52945;51.908;8.364;2023-04-15T19:10:55;11.70;78.20
66140;DHT22;52945;51.908;8.364;2023-04-15T19:13:56;11.70;78.00